createdAt,value
2022-08-26T00:00:50.394Z,2.40
2022-08-26T00:01:50.441Z,2.10
2022-08-26T00:02:51.444Z,2.20
2022-08-26T00:03:51.396Z,1.90
2022-08-26T00:04:50.350Z,2.30
2022-08-26T00:05:51.279Z,2.30
2022-08-26T00:06:51.384Z,2.50
2022-08-26T00:07:50.316Z,2.30
2022-08-26T00:08:51.285Z,2.30
2022-08-26T00:09:54.383Z,2.40
2022-08-26T00:10:51.279Z,2.10
2022-08-26T00:11:50.288Z,2.60
2022-08-26T00:12:50.289Z,2.90
2022-08-26T00:13:50.265Z,2.40
2022-08-26T00:14:50.252Z,2.60
2022-08-26T00:15:50.235Z,2.70
2022-08-26T00:16:52.821Z,2.40
2022-08-26T00:17:50.214Z,2.50
2022-08-26T00:18:50.329Z,2.70
2022-08-26T00:19:50.197Z,2.30
2022-08-26T00:20:56.783Z,2.50
2022-08-26T00:21:50.785Z,2.80
2022-08-26T00:22:56.795Z,2.50
2022-08-26T00:23:50.155Z,2.70
2022-08-26T00:24:50.182Z,2.60
2022-08-26T00:25:50.127Z,2.70
2022-08-26T00:26:50.777Z,2.60
2022-08-26T00:27:50.099Z,2.60
2022-08-26T00:28:50.091Z,2.40
2022-08-26T00:29:50.090Z,3.10
2022-08-26T00:30:52.099Z,2.40
2022-08-26T00:31:50.133Z,2.50
2022-08-26T00:32:50.045Z,2.50
2022-08-26T00:33:50.040Z,2.30
2022-08-26T00:34:50.032Z,2.30
2022-08-26T00:35:50.040Z,2.50
2022-08-26T00:36:51.851Z,2.60
2022-08-26T00:37:49.987Z,2.30
2022-08-26T00:38:50.785Z,2.40
2022-08-26T00:39:50.046Z,2.10
2022-08-26T00:40:50.323Z,2.50
2022-08-26T00:41:49.971Z,3.10
2022-08-26T00:42:56.792Z,2.40
2022-08-26T00:43:49.933Z,2.40
2022-08-26T00:44:49.922Z,2.40
2022-08-26T00:45:49.916Z,2.30
2022-08-26T00:46:50.992Z,2.70
2022-08-26T00:47:49.886Z,2.60
2022-08-26T00:48:50.908Z,2.60
2022-08-26T00:49:49.872Z,2.30
2022-08-26T00:50:49.870Z,2.40
2022-08-26T00:51:49.854Z,2.10
2022-08-26T00:52:49.827Z,2.50
2022-08-26T00:53:50.832Z,2.30
2022-08-26T00:54:50.787Z,2.70
2022-08-26T00:55:49.828Z,2.50
2022-08-26T00:56:49.779Z,2.40
2022-08-26T00:57:49.785Z,2.60
2022-08-26T00:58:52.288Z,2.50
2022-08-26T00:59:49.759Z,2.60
2022-08-26T01:00:52.323Z,2.40
2022-08-26T01:01:49.809Z,2.10
2022-08-26T01:02:49.723Z,2.60
2022-08-26T01:03:50.311Z,2.50
2022-08-26T01:04:55.596Z,2.40
2022-08-26T01:05:50.693Z,2.50
2022-08-26T01:06:49.699Z,2.50
2022-08-26T01:07:49.840Z,2.60
2022-08-26T01:08:49.652Z,2.50
2022-08-26T01:09:49.691Z,2.70
2022-08-26T01:10:50.296Z,2.60
2022-08-26T01:11:49.840Z,2.40
2022-08-26T01:12:49.620Z,2.60
2022-08-26T01:13:49.615Z,2.60
2022-08-26T01:14:49.885Z,2.40
2022-08-26T01:15:49.600Z,2.40
2022-08-26T01:16:50.357Z,2.60
2022-08-26T01:17:49.568Z,2.50
2022-08-26T01:18:49.577Z,2.90
2022-08-26T01:19:49.547Z,2.80
2022-08-26T01:20:49.531Z,2.50
2022-08-26T01:21:49.517Z,2.70
2022-08-26T01:22:49.545Z,2.60
2022-08-26T01:23:49.499Z,2.80
2022-08-26T01:24:49.486Z,2.40
2022-08-26T01:25:49.470Z,2.70
2022-08-26T01:26:50.304Z,3.00
2022-08-26T01:27:49.452Z,2.80
2022-08-26T01:28:51.719Z,3.00
2022-08-26T01:29:50.301Z,2.70
2022-08-26T01:30:50.301Z,3.00
2022-08-26T01:31:50.374Z,3.00
2022-08-26T01:32:49.403Z,2.80
2022-08-26T01:33:49.833Z,3.00
2022-08-26T01:34:49.373Z,2.80
2022-08-26T01:35:51.347Z,2.90
2022-08-26T01:36:51.429Z,2.90
2022-08-26T01:37:50.432Z,3.20
2022-08-26T01:38:50.325Z,2.90
2022-08-26T01:39:49.453Z,3.00
2022-08-26T01:40:50.410Z,2.80
2022-08-26T01:41:53.561Z,3.10
2022-08-26T01:42:49.292Z,3.10
2022-08-26T01:43:49.287Z,3.10
2022-08-26T01:44:49.297Z,3.10
2022-08-26T01:45:49.302Z,3.20
2022-08-26T01:46:49.243Z,3.10
2022-08-26T01:47:49.259Z,3.10
2022-08-26T01:48:52.415Z,3.30
2022-08-26T01:49:49.246Z,3.20
2022-08-26T01:50:49.342Z,3.00
2022-08-26T01:51:49.206Z,3.40
2022-08-26T01:52:51.666Z,3.10
2022-08-26T01:53:50.164Z,3.30
2022-08-26T01:54:50.544Z,3.60
2022-08-26T01:55:49.330Z,3.50
2022-08-26T01:57:10.820Z,3.70
2022-08-26T01:57:49.166Z,3.20
2022-08-26T01:58:49.841Z,3.30
2022-08-26T01:59:49.106Z,3.30
2022-08-26T02:00:49.274Z,3.50
2022-08-26T02:01:49.799Z,3.50
2022-08-26T02:02:49.073Z,3.80
2022-08-26T02:03:49.057Z,3.50
2022-08-26T02:04:49.104Z,3.40
2022-08-26T02:05:51.433Z,3.90
2022-08-26T02:06:49.099Z,3.20
2022-08-26T02:07:49.023Z,3.60
2022-08-26T02:08:48.996Z,3.60
2022-08-26T02:09:48.992Z,3.40
2022-08-26T02:10:49.043Z,3.50
2022-08-26T02:11:51.057Z,3.40
2022-08-26T02:12:48.974Z,3.80
2022-08-26T02:13:48.957Z,3.50
2022-08-26T02:14:51.804Z,3.70
2022-08-26T02:15:49.946Z,3.30
2022-08-26T02:16:48.904Z,3.10
2022-08-26T02:17:54.323Z,3.20
2022-08-26T02:18:48.885Z,3.50
2022-08-26T02:19:48.884Z,3.40
2022-08-26T02:20:51.525Z,3.70
2022-08-26T02:21:51.328Z,3.50
2022-08-26T02:22:49.807Z,3.50
2022-08-26T02:23:49.347Z,3.20
2022-08-26T02:24:48.824Z,3.40
2022-08-26T02:25:48.807Z,3.70
2022-08-26T02:26:48.829Z,3.40
2022-08-26T02:27:48.782Z,3.60
2022-08-26T02:28:48.777Z,3.50
2022-08-26T02:29:48.757Z,3.80
2022-08-26T02:30:48.775Z,4.10
2022-08-26T02:31:48.888Z,3.70
2022-08-26T02:32:49.625Z,4.00
2022-08-26T02:33:48.722Z,3.60
2022-08-26T02:34:48.741Z,3.90
2022-08-26T02:35:49.314Z,3.40
2022-08-26T02:36:48.693Z,3.80
2022-08-26T02:37:49.309Z,4.20
2022-08-26T02:38:56.371Z,3.50
2022-08-26T02:39:48.909Z,4.00
2022-08-26T02:40:48.645Z,3.60
2022-08-26T02:41:48.637Z,3.80
2022-08-26T02:42:48.631Z,4.00
2022-08-26T02:43:48.614Z,4.00
2022-08-26T02:44:48.609Z,4.00
2022-08-26T02:45:48.632Z,4.10
2022-08-26T02:46:48.608Z,3.80
2022-08-26T02:47:48.598Z,3.60
2022-08-26T02:48:55.314Z,4.00
2022-08-26T02:49:48.554Z,4.70
2022-08-26T02:50:48.535Z,4.00
2022-08-26T02:51:48.558Z,3.90
2022-08-26T02:52:51.306Z,3.90
2022-08-26T02:53:48.519Z,4.00
2022-08-26T02:54:49.645Z,4.00
2022-08-26T02:55:48.490Z,4.10
2022-08-26T02:56:48.469Z,4.00
2022-08-26T02:57:49.866Z,3.80
2022-08-26T02:58:51.313Z,3.70
2022-08-26T02:59:48.447Z,4.10
2022-08-26T03:00:49.299Z,3.90
2022-08-26T03:01:50.355Z,4.00
2022-08-26T03:02:48.401Z,4.40
2022-08-26T03:03:48.426Z,3.80
2022-08-26T03:04:57.754Z,4.00
2022-08-26T03:05:49.376Z,4.20
2022-08-26T03:06:52.961Z,4.40
2022-08-26T03:07:50.331Z,3.90
2022-08-26T03:08:48.340Z,4.20
2022-08-26T03:09:48.330Z,4.30
2022-08-26T03:10:48.328Z,4.00
2022-08-26T03:11:48.344Z,3.80
2022-08-26T03:12:48.822Z,4.10
2022-08-26T03:13:50.813Z,4.20
2022-08-26T03:14:48.292Z,4.60
2022-08-26T03:15:48.335Z,4.00
2022-08-26T03:16:48.443Z,4.30
2022-08-26T03:17:48.350Z,4.30
2022-08-26T03:18:52.258Z,3.90
2022-08-26T03:19:52.885Z,4.10
2022-08-26T03:21:10.221Z,4.10
2022-08-26T03:21:48.225Z,4.20
2022-08-26T03:22:48.835Z,4.40
2022-08-26T03:23:48.822Z,4.20
2022-08-26T03:25:09.187Z,4.30
2022-08-26T03:25:48.818Z,4.60
2022-08-26T03:26:52.981Z,4.60
2022-08-26T03:27:48.360Z,4.60
2022-08-26T03:28:48.154Z,4.50
2022-08-26T03:29:49.519Z,4.70
2022-08-26T03:30:48.111Z,4.50
2022-08-26T03:31:48.135Z,5.00
2022-08-26T03:32:48.100Z,4.60
2022-08-26T03:33:48.084Z,4.70
2022-08-26T03:34:48.094Z,5.00
2022-08-26T03:35:50.565Z,4.90
2022-08-26T03:36:48.838Z,5.10
2022-08-26T03:37:48.044Z,4.70
2022-08-26T03:38:48.031Z,5.10
2022-08-26T03:39:48.095Z,4.80
2022-08-26T03:40:49.071Z,5.00
2022-08-26T03:41:48.343Z,4.90
2022-08-26T03:42:47.991Z,5.00
2022-08-26T03:43:47.988Z,5.40
2022-08-26T03:44:47.969Z,5.00
2022-08-26T03:45:47.972Z,5.00
2022-08-26T03:46:48.013Z,5.20
2022-08-26T03:47:47.928Z,5.50
2022-08-26T03:48:47.928Z,4.90
2022-08-26T03:49:48.851Z,4.80
2022-08-26T03:50:48.937Z,4.70
2022-08-26T03:51:47.888Z,4.90
2022-08-26T03:52:48.373Z,4.80
2022-08-26T03:53:47.897Z,5.30
2022-08-26T03:54:55.850Z,5.10
2022-08-26T03:55:52.029Z,5.30
2022-08-26T03:56:50.820Z,4.90
2022-08-26T03:57:48.934Z,4.90
2022-08-26T03:58:47.825Z,5.10
2022-08-26T03:59:50.328Z,5.40
2022-08-26T04:00:55.381Z,5.00
2022-08-26T04:01:49.034Z,5.40
2022-08-26T04:02:47.820Z,5.40
2022-08-26T04:03:47.765Z,5.20
2022-08-26T04:04:50.329Z,5.30
2022-08-26T04:05:48.810Z,5.10
2022-08-26T04:06:47.976Z,5.00
2022-08-26T04:07:47.726Z,5.20
2022-08-26T04:08:47.703Z,5.10
2022-08-26T04:09:47.738Z,5.20
2022-08-26T04:10:47.685Z,5.00
2022-08-26T04:11:47.688Z,5.40
2022-08-26T04:12:47.662Z,4.60
2022-08-26T04:13:48.329Z,4.90
2022-08-26T04:14:50.372Z,4.90
2022-08-26T04:15:47.956Z,5.00
2022-08-26T04:16:47.618Z,5.00
2022-08-26T04:17:47.625Z,4.90
2022-08-26T04:18:47.626Z,5.60
2022-08-26T04:19:47.589Z,5.70
2022-08-26T04:20:47.573Z,5.40
2022-08-26T04:21:50.332Z,5.10
2022-08-26T04:22:47.570Z,5.20
2022-08-26T04:23:48.596Z,5.10
2022-08-26T04:24:47.533Z,5.00
2022-08-26T04:25:50.334Z,5.00
2022-08-26T04:26:47.540Z,4.70
2022-08-26T04:27:47.513Z,5.00
2022-08-26T04:28:47.496Z,4.80
2022-08-26T04:29:51.429Z,4.90
2022-08-26T04:30:49.333Z,4.90
2022-08-26T04:31:47.465Z,5.30
2022-08-26T04:32:47.465Z,4.90
2022-08-26T04:33:49.766Z,4.70
2022-08-26T04:34:48.344Z,5.70
2022-08-26T04:35:47.431Z,5.20
2022-08-26T04:36:47.404Z,5.20
2022-08-26T04:37:49.361Z,5.40
2022-08-26T04:38:47.371Z,5.80
2022-08-26T04:39:47.434Z,5.60
2022-08-26T04:41:02.330Z,5.10
2022-08-26T04:41:47.336Z,5.60
2022-08-26T04:42:47.341Z,6.00
2022-08-26T04:43:47.364Z,5.60
2022-08-26T04:44:47.320Z,5.60
2022-08-26T04:45:47.319Z,5.40
2022-08-26T04:46:47.320Z,5.50
2022-08-26T04:47:47.314Z,6.00
2022-08-26T04:48:47.273Z,5.40
2022-08-26T04:49:47.295Z,6.20
2022-08-26T04:50:47.249Z,6.20
2022-08-26T04:51:49.851Z,6.10
2022-08-26T04:52:47.837Z,6.40
2022-08-26T04:53:47.229Z,6.90
2022-08-26T04:54:47.358Z,7.80
2022-08-26T04:55:48.529Z,7.30
2022-08-26T04:56:47.197Z,8.00
2022-08-26T04:57:47.180Z,8.00
2022-08-26T04:58:47.168Z,8.20
2022-08-26T04:59:47.197Z,8.10
2022-08-26T05:00:47.153Z,9.10
2022-08-26T05:01:47.160Z,9.20
2022-08-26T05:02:47.144Z,9.10
2022-08-26T05:03:47.146Z,9.30
2022-08-26T05:04:53.840Z,9.60
2022-08-26T05:05:47.115Z,9.00
2022-08-26T05:06:47.082Z,9.50
2022-08-26T05:07:47.089Z,9.50
2022-08-26T05:08:47.060Z,9.60
2022-08-26T05:09:49.836Z,9.50
2022-08-26T05:10:49.840Z,10.40
2022-08-26T05:11:52.143Z,10.80
2022-08-26T05:12:47.015Z,10.60
2022-08-26T05:13:47.021Z,10.70
2022-08-26T05:14:46.994Z,11.00
2022-08-26T05:15:47.049Z,11.20
2022-08-26T05:16:47.755Z,11.50
2022-08-26T05:17:46.976Z,11.30
2022-08-26T05:18:47.845Z,11.70
2022-08-26T05:19:46.938Z,11.20
2022-08-26T05:20:46.946Z,12.30
2022-08-26T05:21:47.850Z,12.50
2022-08-26T05:22:49.838Z,12.30
2022-08-26T05:23:46.887Z,12.40
2022-08-26T05:24:46.907Z,12.90
2022-08-26T05:25:46.877Z,13.70
2022-08-26T05:26:46.910Z,13.70
2022-08-26T05:27:46.848Z,14.10
2022-08-26T05:28:46.833Z,14.50
2022-08-26T05:29:46.821Z,15.00
2022-08-26T05:30:47.874Z,15.80
2022-08-26T05:31:46.831Z,15.50
2022-08-26T05:32:46.834Z,16.60
2022-08-26T05:33:46.779Z,17.60
2022-08-26T05:34:46.778Z,18.70
2022-08-26T05:35:46.761Z,17.40
2022-08-26T05:36:46.759Z,19.60
2022-08-26T05:37:46.751Z,18.90
2022-08-26T05:38:46.730Z,18.20
2022-08-26T05:39:51.246Z,18.60
2022-08-26T05:40:46.705Z,20.30
2022-08-26T05:41:46.715Z,19.80
2022-08-26T05:42:47.729Z,19.70
2022-08-26T05:43:46.670Z,20.50
2022-08-26T05:44:55.527Z,20.30
2022-08-26T05:45:47.689Z,20.70
2022-08-26T05:46:46.765Z,20.60
2022-08-26T05:47:46.630Z,21.80
2022-08-26T05:48:46.619Z,22.30
2022-08-26T05:49:51.260Z,22.00
2022-08-26T05:50:47.593Z,22.20
2022-08-26T05:51:47.969Z,22.70
2022-08-26T05:52:46.580Z,23.50
2022-08-26T05:53:54.553Z,22.80
2022-08-26T05:54:47.739Z,24.10
2022-08-26T05:55:46.552Z,23.80
2022-08-26T05:56:46.552Z,25.10
2022-08-26T05:57:46.510Z,25.10
2022-08-26T05:58:46.516Z,24.90
2022-08-26T05:59:46.498Z,26.70
2022-08-26T06:00:46.510Z,25.80
2022-08-26T06:01:46.520Z,26.50
2022-08-26T06:02:48.381Z,27.60
2022-08-26T06:03:46.447Z,26.70
2022-08-26T06:04:46.444Z,26.90
2022-08-26T06:05:46.442Z,27.80
2022-08-26T06:06:46.443Z,28.20
2022-08-26T06:07:47.339Z,28.50
2022-08-26T06:08:46.422Z,27.90
2022-08-26T06:09:46.378Z,27.70
2022-08-26T06:10:46.374Z,28.50
2022-08-26T06:11:46.381Z,27.70
2022-08-26T06:12:46.373Z,29.30
2022-08-26T06:13:46.343Z,28.40
2022-08-26T06:14:47.325Z,28.90
2022-08-26T06:15:46.368Z,28.50
2022-08-26T06:16:46.318Z,28.70
2022-08-26T06:17:46.298Z,27.70
2022-08-26T06:18:46.295Z,27.90
2022-08-26T06:19:48.912Z,27.70
2022-08-26T06:20:57.395Z,27.10
2022-08-26T06:21:47.274Z,28.70
2022-08-26T06:22:46.246Z,27.20
2022-08-26T06:23:46.238Z,28.20
2022-08-26T06:24:46.213Z,27.60
2022-08-26T06:25:47.247Z,27.20
2022-08-26T06:26:46.842Z,27.40
2022-08-26T06:27:46.210Z,26.60
2022-08-26T06:28:46.179Z,26.10
2022-08-26T06:29:46.217Z,25.30
2022-08-26T06:30:46.163Z,26.60
2022-08-26T06:31:46.159Z,26.00
2022-08-26T06:32:46.177Z,26.90
2022-08-26T06:33:46.137Z,25.50
2022-08-26T06:34:46.139Z,24.70
2022-08-26T06:35:46.110Z,25.00
2022-08-26T06:36:46.168Z,25.90
2022-08-26T06:37:46.854Z,24.20
2022-08-26T06:38:46.078Z,24.90
2022-08-26T06:39:46.061Z,25.10
2022-08-26T06:40:46.043Z,25.30
2022-08-26T06:41:46.271Z,25.10
2022-08-26T06:42:46.048Z,24.70
2022-08-26T06:43:46.017Z,24.80
2022-08-26T06:44:46.013Z,24.60
2022-08-26T06:46:07.039Z,24.80
2022-08-26T06:46:46.111Z,24.70
2022-08-26T06:47:45.996Z,24.60
2022-08-26T06:48:47.025Z,23.90
2022-08-26T06:49:45.948Z,24.40
2022-08-26T06:50:45.962Z,23.80
2022-08-26T06:51:45.961Z,24.80
2022-08-26T06:52:45.960Z,23.70
2022-08-26T06:53:45.905Z,23.80
2022-08-26T06:54:45.923Z,23.20
2022-08-26T06:55:45.889Z,23.90
2022-08-26T06:56:45.888Z,23.40
2022-08-26T06:57:45.865Z,22.90
2022-08-26T06:58:45.861Z,24.10
2022-08-26T06:59:45.848Z,22.80
2022-08-26T07:00:47.494Z,22.60
2022-08-26T07:01:46.461Z,21.90
2022-08-26T07:02:46.830Z,21.40
2022-08-26T07:03:46.558Z,21.80
2022-08-26T07:04:47.897Z,22.60
2022-08-26T07:05:47.824Z,21.90
2022-08-26T07:06:45.780Z,21.10
2022-08-26T07:07:45.762Z,22.60
2022-08-26T07:08:45.751Z,23.10
2022-08-26T07:09:45.739Z,21.30
2022-08-26T07:10:45.723Z,21.10
2022-08-26T07:11:45.761Z,21.50
2022-08-26T07:12:47.206Z,19.90
2022-08-26T07:13:45.697Z,20.40
2022-08-26T07:14:47.434Z,21.20
2022-08-26T07:15:46.825Z,20.50
2022-08-26T07:16:46.671Z,21.60
2022-08-26T07:17:45.654Z,20.30
2022-08-26T07:18:45.825Z,21.30
2022-08-26T07:19:45.649Z,20.60
2022-08-26T07:20:45.616Z,19.90
2022-08-26T07:21:46.672Z,20.10
2022-08-26T07:22:45.589Z,20.80
2022-08-26T07:23:45.586Z,20.10
2022-08-26T07:24:45.595Z,19.70
2022-08-26T07:25:45.560Z,19.50
2022-08-26T07:26:45.575Z,19.30
2022-08-26T07:27:45.559Z,19.50
2022-08-26T07:28:46.527Z,19.10
2022-08-26T07:29:45.540Z,20.10
2022-08-26T07:30:45.539Z,18.80
2022-08-26T07:31:45.498Z,19.00
2022-08-26T07:32:45.477Z,19.10
2022-08-26T07:33:46.512Z,19.10
2022-08-26T07:34:45.485Z,18.90
2022-08-26T07:35:45.451Z,18.90
2022-08-26T07:36:45.444Z,18.90
2022-08-26T07:37:45.437Z,18.40
2022-08-26T07:38:45.422Z,18.30
2022-08-26T07:39:45.402Z,18.10
2022-08-26T07:40:46.435Z,18.40
2022-08-26T07:41:45.378Z,18.10
2022-08-26T07:42:45.367Z,18.40
2022-08-26T07:43:45.353Z,17.40
2022-08-26T07:44:46.374Z,19.00
2022-08-26T07:45:45.466Z,19.40
2022-08-26T07:46:45.348Z,18.10
2022-08-26T07:47:46.337Z,17.80
2022-08-26T07:48:46.057Z,17.80
2022-08-26T07:49:45.386Z,17.50
2022-08-26T07:50:50.011Z,18.10
2022-08-26T07:51:45.271Z,17.00
2022-08-26T07:52:45.276Z,16.50
2022-08-26T07:53:45.275Z,17.30
2022-08-26T07:54:45.254Z,17.30
2022-08-26T07:55:46.291Z,17.00
2022-08-26T07:56:45.212Z,17.20
2022-08-26T07:57:45.204Z,17.40
2022-08-26T07:58:49.006Z,17.20
2022-08-26T07:59:46.196Z,16.60
2022-08-26T08:00:45.178Z,16.80
2022-08-26T08:01:45.480Z,16.70
2022-08-26T08:02:45.148Z,17.00
2022-08-26T08:03:45.196Z,17.50
2022-08-26T08:04:45.205Z,17.30
2022-08-26T08:05:46.376Z,16.30
2022-08-26T08:06:45.115Z,16.50
2022-08-26T08:07:45.584Z,16.80
2022-08-26T08:08:45.105Z,16.00
2022-08-26T08:09:45.089Z,16.20
2022-08-26T08:10:45.059Z,16.30
2022-08-26T08:11:45.046Z,16.50
2022-08-26T08:12:45.050Z,16.10
2022-08-26T08:13:45.071Z,15.50
2022-08-26T08:14:45.036Z,15.70
2022-08-26T08:15:45.034Z,16.20
2022-08-26T08:16:46.741Z,15.50
2022-08-26T08:17:45.043Z,16.30
2022-08-26T08:18:44.975Z,16.10
2022-08-26T08:19:44.979Z,15.60
2022-08-26T08:20:59.046Z,15.60
2022-08-26T08:21:46.877Z,15.60
2022-08-26T08:22:44.942Z,14.90
2022-08-26T08:23:44.950Z,15.50
2022-08-26T08:24:44.928Z,14.90
2022-08-26T08:25:44.915Z,16.10
2022-08-26T08:26:44.894Z,16.10
2022-08-26T08:27:44.882Z,15.10
2022-08-26T08:28:44.868Z,15.70
2022-08-26T08:29:44.862Z,14.90
2022-08-26T08:30:44.960Z,14.70
2022-08-26T08:31:57.930Z,14.40
2022-08-26T08:32:45.825Z,15.60
2022-08-26T08:33:44.816Z,14.50
2022-08-26T08:34:44.842Z,14.40
2022-08-26T08:35:44.792Z,14.80
2022-08-26T08:36:44.803Z,14.20
2022-08-26T08:37:44.823Z,14.40
2022-08-26T08:38:44.760Z,14.30
2022-08-26T08:39:45.825Z,14.30
2022-08-26T08:40:44.742Z,16.10
2022-08-26T08:41:44.744Z,14.70
2022-08-26T08:42:44.790Z,14.20
2022-08-26T08:43:44.714Z,14.20
2022-08-26T08:44:44.692Z,14.50
2022-08-26T08:45:47.199Z,14.50
2022-08-26T08:46:44.679Z,14.00
2022-08-26T08:47:45.344Z,14.50
2022-08-26T08:48:44.654Z,14.40
2022-08-26T08:49:44.644Z,13.80
2022-08-26T08:50:44.671Z,14.50
2022-08-26T08:51:44.647Z,13.70
2022-08-26T08:52:44.622Z,13.20
2022-08-26T08:53:44.602Z,13.50
2022-08-26T08:54:44.592Z,13.70
2022-08-26T08:55:44.599Z,13.00
2022-08-26T08:56:44.564Z,13.30
2022-08-26T08:57:44.551Z,13.50
2022-08-26T08:58:44.548Z,12.90
2022-08-26T08:59:44.555Z,12.90
2022-08-26T09:00:44.553Z,12.80
2022-08-26T09:01:45.561Z,13.50
2022-08-26T09:02:44.528Z,13.50
2022-08-26T09:03:47.461Z,13.20
2022-08-26T09:04:44.487Z,13.50
2022-08-26T09:05:48.644Z,12.40
2022-08-26T09:06:44.452Z,12.00
2022-08-26T09:07:47.385Z,12.40
2022-08-26T09:08:44.432Z,11.60
2022-08-26T09:09:44.429Z,12.30
2022-08-26T09:10:44.444Z,12.40
2022-08-26T09:11:44.396Z,12.20
2022-08-26T09:12:44.386Z,12.40
2022-08-26T09:13:50.884Z,11.80
2022-08-26T09:14:44.362Z,12.40
2022-08-26T09:15:44.389Z,11.70
2022-08-26T09:16:44.416Z,12.20
2022-08-26T09:17:44.330Z,11.50
2022-08-26T09:18:46.107Z,11.90
2022-08-26T09:19:44.892Z,11.70
2022-08-26T09:20:45.587Z,11.90
2022-08-26T09:21:44.417Z,12.40
2022-08-26T09:22:44.450Z,12.00
2022-08-26T09:23:49.510Z,11.50
2022-08-26T09:24:48.281Z,11.60
2022-08-26T09:25:44.938Z,11.30
2022-08-26T09:26:44.297Z,11.20
2022-08-26T09:27:44.225Z,11.30
2022-08-26T09:28:44.208Z,11.20
2022-08-26T09:29:44.344Z,11.50
2022-08-26T09:30:44.975Z,10.80
2022-08-26T09:31:45.195Z,10.80
2022-08-26T09:32:44.190Z,11.00
2022-08-26T09:33:45.894Z,10.60
2022-08-26T09:34:44.158Z,11.00
2022-08-26T09:35:44.155Z,10.80
2022-08-26T09:36:44.172Z,10.10
2022-08-26T09:38:46.894Z,10.70
2022-08-26T09:39:44.100Z,10.00
2022-08-26T09:40:44.104Z,10.00
2022-08-26T09:41:44.071Z,10.50
2022-08-26T09:42:45.491Z,9.50
2022-08-26T09:43:58.884Z,10.00
2022-08-26T09:44:45.932Z,10.80
2022-08-26T09:45:50.622Z,9.90
2022-08-26T09:46:45.031Z,9.80
2022-08-26T09:47:44.007Z,10.20
2022-08-26T09:48:44.032Z,9.60
2022-08-26T09:49:43.979Z,10.50
2022-08-26T09:50:43.983Z,10.00
2022-08-26T09:51:43.965Z,10.00
2022-08-26T09:52:45.027Z,10.00
2022-08-26T09:53:43.966Z,10.60
2022-08-26T09:54:43.942Z,10.50
2022-08-26T09:55:43.930Z,10.20
2022-08-26T09:56:46.905Z,10.40
2022-08-26T09:57:44.005Z,9.60
2022-08-26T09:58:44.113Z,10.10
2022-08-26T09:59:43.921Z,10.60
2022-08-26T10:00:43.879Z,11.10
2022-08-26T10:01:44.885Z,10.60
2022-08-26T10:02:47.457Z,11.00
2022-08-26T10:03:43.964Z,11.30
2022-08-26T10:04:43.903Z,10.60
2022-08-26T10:05:43.843Z,10.50
2022-08-26T10:06:43.800Z,10.40
2022-08-26T10:07:43.782Z,11.40
2022-08-26T10:08:44.121Z,10.70
2022-08-26T10:09:43.774Z,10.60
2022-08-26T10:10:45.063Z,10.50
2022-08-26T10:11:43.750Z,10.30
2022-08-26T10:12:43.805Z,10.40
2022-08-26T10:13:43.730Z,10.50
2022-08-26T10:15:50.002Z,10.30
2022-08-26T10:16:44.763Z,10.40
2022-08-26T10:17:43.687Z,10.00
2022-08-26T10:18:43.685Z,10.00
2022-08-26T10:19:56.957Z,10.60
2022-08-26T10:20:45.677Z,10.20
2022-08-26T10:21:43.631Z,10.10
2022-08-26T10:22:43.659Z,10.30
2022-08-26T10:23:43.629Z,9.90
2022-08-26T10:24:44.404Z,10.10
2022-08-26T10:25:43.599Z,9.80
2022-08-26T10:26:43.936Z,9.80
2022-08-26T10:27:51.242Z,10.00
2022-08-26T10:28:44.955Z,9.50
2022-08-26T10:29:43.553Z,9.50
2022-08-26T10:30:43.534Z,9.90
2022-08-26T10:31:43.581Z,10.10
2022-08-26T10:32:43.934Z,9.50
2022-08-26T10:33:44.397Z,9.20
2022-08-26T10:34:43.514Z,9.50
2022-08-26T10:35:43.490Z,9.20
2022-08-26T10:37:13.418Z,9.50
2022-08-26T10:37:44.455Z,9.70
2022-08-26T10:38:46.944Z,9.20
2022-08-26T10:39:43.932Z,9.60
2022-08-26T10:40:43.475Z,8.70
2022-08-26T10:41:44.404Z,9.10
2022-08-26T10:42:44.462Z,8.90
2022-08-26T10:43:43.416Z,9.40
2022-08-26T10:44:45.425Z,9.20
2022-08-26T10:45:46.958Z,9.00
2022-08-26T10:46:43.368Z,9.30
2022-08-26T10:47:43.366Z,9.20
2022-08-26T10:48:43.358Z,9.10
2022-08-26T10:49:43.334Z,9.00
2022-08-26T10:50:43.336Z,8.60
2022-08-26T10:51:45.633Z,8.90
2022-08-26T10:52:57.906Z,8.70
2022-08-26T10:53:44.318Z,9.60
2022-08-26T10:54:43.300Z,8.60
2022-08-26T10:55:44.306Z,8.70
2022-08-26T10:56:49.900Z,8.90
2022-08-26T10:57:43.237Z,8.60
2022-08-26T10:58:44.657Z,8.60
2022-08-26T10:59:44.321Z,8.60
2022-08-26T11:00:44.015Z,8.60
2022-08-26T11:01:43.381Z,8.20
2022-08-26T11:02:47.429Z,8.70
2022-08-26T11:03:43.199Z,8.60
2022-08-26T11:04:48.366Z,9.40
2022-08-26T11:05:43.162Z,8.90
2022-08-26T11:06:43.906Z,8.60
2022-08-26T11:07:43.908Z,8.40
2022-08-26T11:08:43.147Z,8.70
2022-08-26T11:09:43.320Z,8.90
2022-08-26T11:10:43.130Z,8.40
2022-08-26T11:11:43.106Z,9.00
2022-08-26T11:12:43.085Z,8.50
2022-08-26T11:13:43.075Z,8.90
2022-08-26T11:14:53.690Z,8.40
2022-08-26T11:15:44.914Z,8.20
2022-08-26T11:16:43.668Z,8.60
2022-08-26T11:17:43.041Z,9.00
2022-08-26T11:18:43.034Z,8.40
2022-08-26T11:20:00.283Z,8.60
2022-08-26T11:20:44.007Z,8.70
2022-08-26T11:21:42.993Z,8.70
2022-08-26T11:22:47.665Z,8.50
2022-08-26T11:23:42.967Z,9.30
2022-08-26T11:24:43.433Z,8.80
2022-08-26T11:25:42.974Z,8.40
2022-08-26T11:26:55.334Z,8.80
2022-08-26T11:27:43.956Z,8.80
2022-08-26T11:28:44.084Z,8.80
2022-08-26T11:29:42.903Z,8.10
2022-08-26T11:30:43.434Z,8.00
2022-08-26T11:31:42.949Z,8.00
2022-08-26T11:32:42.867Z,8.10
2022-08-26T11:33:42.943Z,7.80
2022-08-26T11:34:43.410Z,8.20
2022-08-26T11:35:43.849Z,7.80
2022-08-26T11:36:49.415Z,7.80
2022-08-26T11:37:42.816Z,7.90
2022-08-26T11:38:42.949Z,7.80
2022-08-26T11:39:46.274Z,7.90
2022-08-26T11:40:42.824Z,7.80
2022-08-26T11:41:42.800Z,8.10
2022-08-26T11:42:42.820Z,7.20
2022-08-26T11:43:42.756Z,7.20
2022-08-26T11:44:49.628Z,7.90
2022-08-26T11:45:43.780Z,7.60
2022-08-26T11:46:42.733Z,7.60
2022-08-26T11:47:43.421Z,7.70
2022-08-26T11:48:42.693Z,7.20
2022-08-26T11:49:42.952Z,7.70
2022-08-26T11:50:42.947Z,7.60
2022-08-26T11:51:46.419Z,7.50
2022-08-26T11:52:44.409Z,7.10
2022-08-26T11:53:43.426Z,7.30
2022-08-26T11:54:42.633Z,7.30
2022-08-26T11:55:43.664Z,7.10
2022-08-26T11:56:42.617Z,7.60
2022-08-26T11:57:42.604Z,7.50
2022-08-26T11:58:43.432Z,7.20
2022-08-26T11:59:42.640Z,6.90
2022-08-26T12:00:45.767Z,7.50
2022-08-26T12:01:43.414Z,7.70
2022-08-26T12:02:43.574Z,7.30
2022-08-26T12:03:42.609Z,7.80
2022-08-26T12:04:42.577Z,7.60
2022-08-26T12:05:43.458Z,7.20
2022-08-26T12:06:45.282Z,7.70
2022-08-26T12:07:42.764Z,7.50
2022-08-26T12:08:42.491Z,7.50
2022-08-26T12:09:42.475Z,7.10
2022-08-26T12:10:42.460Z,7.20
2022-08-26T12:11:42.944Z,6.70
2022-08-26T12:12:42.453Z,7.10
2022-08-26T12:13:42.422Z,7.20
2022-08-26T12:14:42.426Z,6.50
2022-08-26T12:15:42.420Z,6.30
2022-08-26T12:16:42.545Z,6.10
2022-08-26T12:17:42.381Z,6.20
2022-08-26T12:18:42.374Z,6.70
2022-08-26T12:19:42.403Z,6.10
2022-08-26T12:20:44.928Z,6.90
2022-08-26T12:21:42.365Z,6.40
2022-08-26T12:22:43.420Z,6.30
2022-08-26T12:23:43.477Z,6.40
2022-08-26T12:24:42.315Z,6.40
2022-08-26T12:25:42.292Z,6.50
2022-08-26T12:26:43.953Z,7.10
2022-08-26T12:27:42.287Z,6.20
2022-08-26T12:28:42.277Z,6.40
2022-08-26T12:30:03.258Z,6.60
2022-08-26T12:30:42.250Z,6.70
2022-08-26T12:31:42.263Z,6.00
2022-08-26T12:32:57.554Z,5.80
2022-08-26T12:33:43.458Z,6.30
2022-08-26T12:34:42.202Z,6.50
2022-08-26T12:35:42.452Z,6.60
2022-08-26T12:36:42.180Z,6.50
2022-08-26T12:37:42.213Z,6.20
2022-08-26T12:38:42.179Z,6.30
2022-08-26T12:39:42.145Z,6.10
2022-08-26T12:40:42.160Z,6.30
2022-08-26T12:41:42.118Z,5.80
2022-08-26T12:42:42.119Z,6.00
2022-08-26T12:43:42.464Z,6.30
2022-08-26T12:44:53.121Z,6.10
2022-08-26T12:45:43.152Z,5.80
2022-08-26T12:46:43.919Z,6.00
2022-08-26T12:47:43.782Z,5.80
2022-08-26T12:48:42.043Z,5.70
2022-08-26T12:49:42.933Z,5.40
2022-08-26T12:50:44.929Z,5.40
2022-08-26T12:51:49.975Z,5.20
2022-08-26T12:52:42.012Z,5.60
2022-08-26T12:53:42.935Z,5.50
2022-08-26T12:54:41.976Z,5.20
2022-08-26T12:55:41.979Z,5.20
2022-08-26T12:56:41.975Z,4.80
2022-08-26T12:57:41.982Z,4.40
2022-08-26T12:58:41.999Z,4.60
2022-08-26T12:59:41.963Z,4.40
2022-08-26T13:00:42.046Z,4.60
2022-08-26T13:01:42.035Z,4.30
2022-08-26T13:02:41.891Z,4.70
2022-08-26T13:03:41.929Z,4.10
2022-08-26T13:04:41.871Z,4.10
2022-08-26T13:05:41.891Z,4.20
2022-08-26T13:06:41.856Z,3.80
2022-08-26T13:07:41.842Z,3.90
2022-08-26T13:09:02.968Z,3.70
2022-08-26T13:09:42.429Z,4.10
2022-08-26T13:10:42.439Z,3.70